Time;durP1;ratioP1;P1;durP2;ratioP2;P2;SDS_P1;SDS_P2;PMS_P1;PMS_P2;Temp;Humidity;BMP_temperature;BMP_pressure;BME280_temperature;BME280_humidity;BME280_pressure;Samples;Min_cycle;Max_cycle;Signal;HPM_P1;HPM_P2
2021/10/15 00:01:09;;;;;;;0.90;0.90;;;10.90;99.90;;;;;;5011083;28;20214;-77
2021/10/15 00:03:34;;;;;;;0.60;0.60;;;10.80;99.90;;;;;;4994174;28;20222;-76
2021/10/15 00:06:00;;;;;;;0.63;0.63;;;10.90;99.90;;;;;;4994762;28;20214;-76
2021/10/15 00:08:27;;;;;;;1.73;1.60;;;10.80;99.90;;;;;;5010715;28;20219;-76
2021/10/15 00:10:53;;;;;;;0.80;0.80;;;10.90;99.90;;;;;;4994280;28;20206;-76
2021/10/15 00:13:19;;;;;;;0.90;0.90;;;10.80;99.90;;;;;;5011128;28;20576;-76
2021/10/15 00:15:45;;;;;;;1.25;1.17;;;10.80;99.90;;;;;;5010810;28;20257;-77
2021/10/15 00:18:10;;;;;;;0.90;0.90;;;10.80;99.90;;;;;;5004890;28;20257;-77
2021/10/15 00:20:36;;;;;;;5.68;1.40;;;10.80;99.90;;;;;;4984186;28;20203;-76
2021/10/15 00:23:02;;;;;;;0.50;0.50;;;10.70;99.90;;;;;;5011620;28;20278;-76
2021/10/15 00:25:27;;;;;;;0.93;0.93;;;10.60;99.90;;;;;;5011158;28;20210;-77
2021/10/15 00:27:53;;;;;;;1.17;1.15;;;10.60;99.90;;;;;;5011305;28;20319;-75
2021/10/15 00:30:19;;;;;;;0.63;0.63;;;10.50;99.90;;;;;;5011150;28;20202;-75
2021/10/15 00:32:44;;;;;;;0.70;0.70;;;10.50;99.90;;;;;;5012684;28;20202;-75
2021/10/15 00:35:10;;;;;;;3.42;1.60;;;10.40;99.90;;;;;;5012419;28;20801;-75
2021/10/15 00:37:36;;;;;;;1.83;1.73;;;10.40;99.90;;;;;;5011323;28;20566;-75
2021/10/15 00:40:02;;;;;;;0.60;0.60;;;10.30;99.90;;;;;;5011079;28;20218;-75
2021/10/15 00:42:28;;;;;;;22.85;2.05;;;10.30;99.90;;;;;;4994471;28;20211;-75
2021/10/15 00:44:54;;;;;;;0.60;0.60;;;10.30;99.90;;;;;;5011242;28;20209;-75
2021/10/15 00:47:20;;;;;;;0.60;0.60;;;10.30;99.90;;;;;;5010360;28;20206;-74
2021/10/15 00:49:45;;;;;;;0.70;0.70;;;10.30;99.90;;;;;;5011735;28;20203;-75
2021/10/15 00:52:12;;;;;;;7.22;1.63;;;10.30;99.90;;;;;;5012977;28;20253;-76
2021/10/15 00:54:39;;;;;;;1.48;1.05;;;10.30;99.90;;;;;;5015212;28;20222;-75
2021/10/15 00:57:09;;;;;;;0.73;0.73;;;10.30;99.90;;;;;;4997801;28;20211;-76
2021/10/15 00:59:35;;;;;;;0.57;0.57;;;10.30;99.90;;;;;;4997592;28;20697;-76
2021/10/15 01:02:00;;;;;;;0.75;0.75;;;10.30;99.90;;;;;;5027874;22;20207;-71
2021/10/15 01:04:26;;;;;;;0.70;0.70;;;10.30;99.90;;;;;;5012982;28;20225;-73
2021/10/15 01:06:52;;;;;;;1.50;1.38;;;10.30;99.90;;;;;;5032923;28;20684;-74
2021/10/15 01:09:18;;;;;;;0.50;0.50;;;10.30;99.90;;;;;;5034047;28;20225;-74
2021/10/15 01:11:45;;;;;;;0.95;0.95;;;10.30;99.90;;;;;;5032433;28;20541;-74
2021/10/15 01:14:12;;;;;;;0.60;0.60;;;10.30;99.90;;;;;;5032443;28;20278;-74
2021/10/15 01:16:39;;;;;;;0.63;0.63;;;10.30;99.90;;;;;;5033461;28;20352;-73
2021/10/15 01:19:04;;;;;;;0.80;0.80;;;10.40;99.90;;;;;;5032279;28;20189;-73
2021/10/15 01:21:30;;;;;;;0.93;0.93;;;10.40;99.90;;;;;;5031097;28;20668;-73
2021/10/15 01:23:57;;;;;;;1.00;0.90;;;10.40;99.90;;;;;;5032628;28;20210;-73
2021/10/15 01:26:23;;;;;;;0.60;0.60;;;10.40;99.90;;;;;;5014434;28;20206;-73
2021/10/15 01:28:49;;;;;;;0.60;0.60;;;10.40;99.90;;;;;;5033046;28;20201;-73
2021/10/15 01:31:15;;;;;;;0.77;0.73;;;10.40;99.90;;;;;;5015540;28;20693;-73
2021/10/15 01:33:40;;;;;;;0.65;0.65;;;10.40;99.90;;;;;;5033503;28;20287;-73
2021/10/15 01:36:06;;;;;;;0.60;0.60;;;10.40;99.90;;;;;;5033181;28;20298;-72
2021/10/15 01:38:32;;;;;;;1.40;1.17;;;10.50;99.90;;;;;;5032007;28;20225;-72
2021/10/15 01:40:58;;;;;;;0.50;0.50;;;10.40;99.90;;;;;;5031201;28;20206;-72
2021/10/15 01:43:29;;;;;;;0.70;0.70;;;10.40;99.90;;;;;;5030166;28;20213;-73
2021/10/15 01:45:56;;;;;;;0.60;0.60;;;10.40;99.90;;;;;;5032198;28;20229;-73
2021/10/15 01:48:23;;;;;;;0.50;0.50;;;10.40;99.90;;;;;;5013982;28;20208;-73
2021/10/15 01:50:49;;;;;;;0.60;0.60;;;10.40;99.90;;;;;;5032238;28;20210;-73
2021/10/15 01:53:15;;;;;;;0.60;0.60;;;10.40;99.90;;;;;;5031998;28;20566;-73
2021/10/15 01:55:41;;;;;;;0.55;0.55;;;10.40;99.90;;;;;;5031612;28;20214;-72
2021/10/15 01:58:07;;;;;;;0.60;0.60;;;10.40;99.90;;;;;;5033048;28;20194;-73
2021/10/15 02:00:33;;;;;;;0.85;0.85;;;10.40;99.90;;;;;;5028384;28;20275;-72
2021/10/15 02:02:59;;;;;;;0.60;0.60;;;10.40;99.90;;;;;;5010865;28;20272;-73
2021/10/15 02:05:25;;;;;;;0.60;0.60;;;10.30;99.90;;;;;;5019912;28;20297;-71
2021/10/15 02:07:50;;;;;;;1.08;0.98;;;10.40;99.90;;;;;;5029522;28;20204;-71
2021/10/15 02:10:17;;;;;;;0.60;0.60;;;10.30;99.90;;;;;;5015477;28;20645;-71
2021/10/15 02:12:43;;;;;;;0.65;0.65;;;10.30;99.90;;;;;;5012308;28;20210;-71
2021/10/15 02:15:11;;;;;;;0.60;0.60;;;10.30;99.90;;;;;;5014567;28;20269;-72
2021/10/15 02:17:37;;;;;;;0.60;0.60;;;10.30;99.90;;;;;;5014456;28;20669;-73
2021/10/15 02:20:09;;;;;;;0.50;0.50;;;10.30;99.90;;;;;;5031428;28;20213;-72
2021/10/15 02:22:40;;;;;;;0.60;0.60;;;10.20;99.90;;;;;;5014648;28;20677;-72
2021/10/15 02:25:07;;;;;;;2.97;2.45;;;10.20;99.90;;;;;;5032776;28;20564;-73
2021/10/15 02:27:33;;;;;;;0.80;0.80;;;10.30;99.90;;;;;;5031099;28;20277;-72
2021/10/15 02:29:59;;;;;;;0.60;0.60;;;10.30;99.90;;;;;;5012884;28;20248;-72
2021/10/15 02:32:25;;;;;;;0.60;0.60;;;10.30;99.90;;;;;;5031450;28;20198;-73
2021/10/15 02:34:51;;;;;;;1.17;1.08;;;10.40;99.90;;;;;;5030945;28;20285;-73
2021/10/15 02:37:16;;;;;;;0.60;0.60;;;10.30;99.90;;;;;;5031043;28;20206;-72
2021/10/15 02:39:42;;;;;;;0.80;0.80;;;10.30;99.90;;;;;;5029883;28;20241;-72
2021/10/15 02:42:08;;;;;;;0.60;0.60;;;10.20;99.90;;;;;;5009708;28;20234;-72
2021/10/15 02:44:34;;;;;;;0.65;0.65;;;10.20;99.90;;;;;;5026926;28;20238;-72
2021/10/15 02:47:00;;;;;;;0.60;0.60;;;10.10;99.90;;;;;;5031997;28;20233;-72
2021/10/15 02:49:26;;;;;;;0.68;0.68;;;10.10;99.90;;;;;;5029494;28;20216;-72
2021/10/15 02:51:52;;;;;;;0.60;0.60;;;10.10;99.90;;;;;;5014305;28;20617;-72
2021/10/15 02:54:17;;;;;;;0.70;0.70;;;10.10;99.90;;;;;;5030858;28;20225;-72
2021/10/15 02:56:43;;;;;;;0.60;0.60;;;10.10;99.90;;;;;;5022853;28;20294;-71
2021/10/15 02:59:09;;;;;;;0.60;0.60;;;10.10;99.90;;;;;;5013112;28;20259;-72
2021/10/15 03:01:35;;;;;;;1.60;1.50;;;10.00;99.90;;;;;;5025858;28;20233;-72
2021/10/15 03:04:01;;;;;;;0.70;0.70;;;10.00;99.90;;;;;;5007910;28;20234;-71
2021/10/15 03:06:26;;;;;;;0.60;0.60;;;9.90;99.90;;;;;;5010581;28;20201;-70
2021/10/15 03:08:52;;;;;;;0.60;0.60;;;9.80;99.90;;;;;;4994594;28;20194;-69
2021/10/15 03:11:18;;;;;;;0.60;0.60;;;9.80;99.90;;;;;;5009506;28;20278;-70
2021/10/15 03:13:44;;;;;;;0.60;0.60;;;9.70;99.90;;;;;;5010396;28;20207;-70
2021/10/15 03:16:10;;;;;;;0.60;0.60;;;9.70;99.90;;;;;;5012189;28;20234;-70
2021/10/15 03:18:35;;;;;;;0.70;0.70;;;9.60;99.90;;;;;;5007316;28;20296;-71
2021/10/15 03:21:01;;;;;;;0.60;0.60;;;9.60;99.90;;;;;;5011582;28;20546;-71
2021/10/15 03:23:29;;;;;;;0.60;0.60;;;9.50;99.90;;;;;;5010484;28;20643;-71
2021/10/15 03:25:55;;;;;;;0.70;0.70;;;9.40;99.90;;;;;;5011205;28;20237;-72
2021/10/15 03:28:21;;;;;;;0.60;0.60;;;9.30;99.90;;;;;;5010350;28;20205;-71
2021/10/15 03:30:47;;;;;;;0.60;0.60;;;9.20;99.90;;;;;;5011646;28;20206;-72
2021/10/15 03:33:12;;;;;;;0.60;0.60;;;9.00;99.90;;;;;;5010577;28;20199;-71
2021/10/15 03:35:38;;;;;;;0.50;0.50;;;8.90;99.90;;;;;;4993437;28;20297;-71
2021/10/15 03:38:04;;;;;;;0.70;0.70;;;8.80;99.90;;;;;;5005874;28;20203;-71
2021/10/15 03:40:30;;;;;;;1.27;1.23;;;8.70;99.90;;;;;;5005205;28;20199;-71
2021/10/15 03:42:55;;;;;;;0.85;0.85;;;8.50;99.90;;;;;;5011822;28;20198;-72
2021/10/15 03:45:21;;;;;;;0.50;0.50;;;8.40;99.90;;;;;;5008969;28;20218;-72
2021/10/15 03:47:47;;;;;;;0.50;0.50;;;8.30;99.90;;;;;;4992732;28;20206;-71
2021/10/15 03:50:14;;;;;;;1.42;1.33;;;8.20;99.90;;;;;;4995300;28;20716;-71
2021/10/15 03:52:40;;;;;;;0.70;0.70;;;8.10;99.90;;;;;;5009037;28;20549;-71
2021/10/15 03:55:09;;;;;;;0.65;0.65;;;8.10;99.90;;;;;;5010238;28;20202;-71
2021/10/15 03:57:35;;;;;;;0.60;0.60;;;8.00;99.90;;;;;;5010876;28;20217;-70
2021/10/15 04:00:04;;;;;;;0.80;0.80;;;7.80;99.90;;;;;;4992444;28;20234;-71
2021/10/15 04:02:30;;;;;;;0.65;0.65;;;7.70;99.90;;;;;;5009694;28;20273;-71
2021/10/15 04:04:55;;;;;;;0.60;0.60;;;7.60;99.90;;;;;;5010491;28;20210;-71
2021/10/15 04:07:21;;;;;;;0.68;0.68;;;7.60;99.90;;;;;;5011224;28;20282;-71
2021/10/15 04:09:47;;;;;;;0.70;0.70;;;7.70;99.90;;;;;;5010721;28;20202;-71
2021/10/15 04:12:12;;;;;;;0.52;0.52;;;7.70;99.90;;;;;;5011726;28;20211;-71
2021/10/15 04:14:38;;;;;;;0.90;0.90;;;7.50;99.90;;;;;;5011600;28;20214;-71
2021/10/15 04:17:04;;;;;;;0.50;0.50;;;7.50;99.90;;;;;;5011746;28;20704;-71
2021/10/15 04:19:30;;;;;;;0.60;0.60;;;7.60;99.90;;;;;;5009917;28;20203;-71
2021/10/15 04:21:56;;;;;;;0.63;0.63;;;7.50;99.90;;;;;;5009948;28;20665;-71
2021/10/15 04:24:22;;;;;;;0.60;0.60;;;7.40;99.90;;;;;;5009762;28;20277;-71
2021/10/15 04:26:47;;;;;;;0.68;0.68;;;7.40;99.90;;;;;;5013142;28;20214;-71
2021/10/15 04:29:13;;;;;;;0.57;0.57;;;7.50;99.90;;;;;;5012672;28;20195;-71
2021/10/15 04:31:38;;;;;;;0.77;0.77;;;7.60;99.90;;;;;;5012432;28;20211;-71
2021/10/15 04:34:04;;;;;;;0.57;0.57;;;7.50;99.90;;;;;;5014965;28;20203;-71
2021/10/15 04:36:30;;;;;;;0.60;0.60;;;7.50;99.90;;;;;;4997785;28;20580;-70
2021/10/15 04:38:56;;;;;;;0.70;0.70;;;7.40;99.90;;;;;;4996826;28;20231;-70
2021/10/15 04:41:21;;;;;;;0.50;0.50;;;7.50;99.90;;;;;;4996793;28;20284;-70
2021/10/15 04:43:47;;;;;;;0.65;0.65;;;7.40;99.90;;;;;;5013584;28;20550;-70
2021/10/15 04:46:13;;;;;;;0.90;0.90;;;7.40;99.90;;;;;;5014691;28;20588;-71
2021/10/15 04:48:38;;;;;;;0.50;0.50;;;7.30;99.90;;;;;;5014414;28;20199;-71
2021/10/15 04:51:04;;;;;;;0.50;0.50;;;7.20;99.90;;;;;;5014728;28;20569;-71
2021/10/15 04:53:29;;;;;;;0.60;0.60;;;7.20;99.90;;;;;;5014555;28;20592;-70
2021/10/15 04:55:55;;;;;;;0.65;0.65;;;7.10;99.90;;;;;;4996770;28;20280;-71
2021/10/15 04:58:21;;;;;;;0.52;0.52;;;7.10;99.90;;;;;;5013978;28;20214;-70
2021/10/15 05:00:47;;;;;;;0.60;0.60;;;7.00;99.90;;;;;;4996445;28;20210;-70
2021/10/15 05:03:12;;;;;;;0.57;0.57;;;6.90;99.90;;;;;;4995345;28;20318;-70
2021/10/15 05:05:42;;;;;;;0.50;0.50;;;6.80;99.90;;;;;;5011872;28;20238;-71
2021/10/15 05:08:10;;;;;;;0.60;0.60;;;6.60;99.90;;;;;;5011940;28;20262;-70
2021/10/15 05:10:40;;;;;;;0.60;0.60;;;6.50;99.90;;;;;;5012980;28;20203;-70
2021/10/15 05:13:06;;;;;;;0.60;0.60;;;6.50;99.90;;;;;;4995464;28;20252;-70
2021/10/15 05:15:32;;;;;;;0.70;0.70;;;6.40;99.90;;;;;;5010795;28;20617;-69
2021/10/15 05:17:57;;;;;;;0.60;0.60;;;6.20;99.90;;;;;;5013196;28;20206;-69
2021/10/15 05:20:23;;;;;;;0.50;0.50;;;6.20;99.90;;;;;;5011456;28;20206;-69
2021/10/15 05:22:49;;;;;;;0.60;0.60;;;6.20;99.90;;;;;;5012963;28;20215;-69
2021/10/15 05:25:15;;;;;;;0.70;0.70;;;6.10;99.90;;;;;;5005903;28;20218;-69
2021/10/15 05:27:41;;;;;;;0.70;0.70;;;6.20;99.90;;;;;;5002285;28;20195;-68
2021/10/15 05:30:09;;;;;;;0.50;0.50;;;6.20;99.90;;;;;;5005700;28;20211;-70
2021/10/15 05:32:38;;;;;;;0.80;0.80;;;6.10;99.90;;;;;;4981668;28;20616;-71
2021/10/15 05:35:06;;;;;;;0.70;0.70;;;6.10;99.90;;;;;;5003282;28;20206;-70
2021/10/15 05:37:32;;;;;;;1.00;1.00;;;6.20;99.90;;;;;;4999297;28;20678;-70
2021/10/15 05:39:58;;;;;;;0.60;0.60;;;6.20;99.90;;;;;;5012826;28;20214;-69
2021/10/15 05:42:23;;;;;;;0.70;0.70;;;6.20;99.90;;;;;;5011209;28;20211;-69
2021/10/15 05:44:49;;;;;;;0.50;0.50;;;6.30;99.90;;;;;;5011290;28;20654;-69
2021/10/15 05:47:15;;;;;;;0.57;0.57;;;6.30;99.90;;;;;;5013595;28;20256;-69
2021/10/15 05:49:41;;;;;;;0.70;0.70;;;6.40;99.90;;;;;;5012161;28;20275;-70
2021/10/15 05:52:17;;;;;;;0.60;0.60;;;6.40;99.90;;;;;;5011661;28;20227;-70
2021/10/15 05:58:49;;;;;;;0.52;0.52;;;6.40;99.90;;;;;;5012252;28;20198;-70
2021/10/15 06:00:14;;;;;;;0.70;0.70;;;6.40;99.90;;;;;;4995948;28;20313;-71
2021/10/15 06:02:44;;;;;;;0.63;0.63;;;6.40;99.90;;;;;;4997066;28;20306;-71
2021/10/15 06:16:02;;;;;;;0.68;0.68;;;6.40;99.90;;;;;;5012013;28;20507;-70
2021/10/15 06:18:36;;;;;;;0.60;0.60;;;6.40;99.90;;;;;;5012830;28;20202;-70
2021/10/15 06:21:02;;;;;;;0.80;0.80;;;6.40;99.90;;;;;;5010540;28;20233;-70
2021/10/15 06:23:30;;;;;;;0.50;0.50;;;6.50;99.90;;;;;;5011667;28;20289;-71
2021/10/15 06:25:56;;;;;;;0.55;0.55;;;6.50;99.90;;;;;;5012943;28;20202;-69
2021/10/15 06:28:22;;;;;;;0.50;0.50;;;6.50;99.90;;;;;;5011446;28;20229;-70
2021/10/15 06:30:47;;;;;;;0.68;0.68;;;6.60;99.90;;;;;;4994908;28;20203;-70
2021/10/15 06:33:13;;;;;;;0.50;0.50;;;6.60;99.90;;;;;;4993223;28;20615;-70
2021/10/15 06:35:39;;;;;;;0.70;0.70;;;6.60;99.90;;;;;;5012018;28;20213;-71
2021/10/15 06:38:06;;;;;;;0.50;0.50;;;6.50;99.90;;;;;;5012275;28;20290;-70
2021/10/15 06:40:32;;;;;;;0.50;0.50;;;6.50;99.90;;;;;;5011389;28;20213;-71
2021/10/15 06:42:58;;;;;;;0.60;0.60;;;6.60;99.90;;;;;;5011716;28;20578;-70
2021/10/15 06:45:23;;;;;;;0.60;0.60;;;6.60;99.90;;;;;;5009887;28;20221;-70
2021/10/15 06:47:49;;;;;;;0.60;0.60;;;6.60;99.90;;;;;;5011340;28;20217;-70
2021/10/15 06:50:15;;;;;;;0.70;0.70;;;6.60;99.90;;;;;;4993771;28;20205;-71
2021/10/15 06:52:49;;;;;;;0.52;0.52;;;6.60;99.90;;;;;;4992209;28;20199;-70
2021/10/15 06:55:21;;;;;;;0.68;0.68;;;6.70;99.90;;;;;;5009862;28;20673;-70
2021/10/15 06:57:47;;;;;;;0.70;0.70;;;6.80;99.90;;;;;;4993601;28;20634;-73
2021/10/15 07:00:14;;;;;;;0.60;0.60;;;6.90;99.90;;;;;;4996892;28;20671;-73
2021/10/15 07:02:40;;;;;;;0.43;0.43;;;6.90;99.90;;;;;;5015104;28;20253;-73
2021/10/15 07:05:07;;;;;;;0.70;0.70;;;6.80;99.90;;;;;;5013073;28;20727;-72
2021/10/15 07:07:33;;;;;;;0.63;0.63;;;6.90;99.90;;;;;;5030893;28;20229;-73
2021/10/15 07:10:00;;;;;;;0.60;0.60;;;6.80;99.90;;;;;;5029586;28;20198;-73
2021/10/15 07:12:27;;;;;;;0.60;0.60;;;6.90;99.90;;;;;;5031749;28;20198;-72
2021/10/15 07:14:54;;;;;;;0.77;0.77;;;7.10;99.90;;;;;;5031776;28;20212;-73
2021/10/15 07:17:20;;;;;;;0.60;0.60;;;7.20;99.90;;;;;;5029177;28;20293;-71
2021/10/15 07:19:46;;;;;;;0.60;0.60;;;7.30;99.90;;;;;;5031776;28;20280;-72
2021/10/15 07:22:11;;;;;;;0.60;0.60;;;7.40;99.90;;;;;;5031644;28;20205;-72
2021/10/15 07:24:37;;;;;;;0.50;0.50;;;7.60;99.90;;;;;;5030606;28;20206;-72
2021/10/15 07:27:03;;;;;;;0.70;0.70;;;7.70;99.90;;;;;;5031621;28;20194;-72
2021/10/15 07:29:28;;;;;;;0.50;0.50;;;7.70;99.90;;;;;;5012921;28;20560;-71
2021/10/15 07:31:54;;;;;;;0.70;0.70;;;7.70;99.90;;;;;;5013007;28;20212;-71
2021/10/15 07:34:20;;;;;;;0.50;0.50;;;7.70;99.90;;;;;;5030262;28;20586;-71
2021/10/15 07:36:45;;;;;;;0.68;0.68;;;7.80;99.90;;;;;;5031831;28;20206;-71
2021/10/15 07:39:11;;;;;;;0.60;0.60;;;7.90;99.90;;;;;;5029079;28;20214;-71
2021/10/15 07:41:43;;;;;;;0.60;0.60;;;8.00;99.90;;;;;;5012343;28;20579;-71
2021/10/15 07:44:10;;;;;;;0.60;0.60;;;7.90;99.90;;;;;;5013663;28;20611;-71
2021/10/15 07:46:36;;;;;;;0.50;0.50;;;7.70;99.90;;;;;;5031420;28;20672;-71
2021/10/15 07:49:02;;;;;;;0.70;0.70;;;7.60;99.90;;;;;;5030509;28;20210;-72
2021/10/15 07:51:28;;;;;;;0.50;0.50;;;7.40;99.90;;;;;;5011113;28;20666;-71
2021/10/15 07:53:57;;;;;;;0.50;0.50;;;7.20;99.90;;;;;;5012040;28;20229;-71
2021/10/15 07:56:22;;;;;;;0.50;0.50;;;7.10;99.90;;;;;;5013239;28;20203;-70
2021/10/15 07:58:48;;;;;;;1.48;1.25;;;7.10;99.90;;;;;;5014542;28;20611;-71
2021/10/15 08:01:14;;;;;;;0.60;0.60;;;7.00;99.90;;;;;;5014128;28;20206;-71
2021/10/15 08:03:40;;;;;;;0.77;0.77;;;7.00;99.90;;;;;;5033490;28;20247;-71
2021/10/15 08:06:05;;;;;;;0.60;0.60;;;7.00;99.90;;;;;;5014989;28;20229;-71
2021/10/15 08:08:31;;;;;;;0.60;0.60;;;7.20;99.90;;;;;;5033967;28;20202;-71
2021/10/15 08:10:57;;;;;;;0.70;0.70;;;7.40;99.90;;;;;;5032986;28;20199;-72
2021/10/15 08:13:22;;;;;;;0.55;0.55;;;7.50;99.90;;;;;;5032431;28;20234;-71
2021/10/15 08:15:48;;;;;;;0.50;0.50;;;7.80;99.90;;;;;;5033983;28;20218;-71
2021/10/15 08:18:14;;;;;;;0.55;0.55;;;7.90;99.90;;;;;;5015263;28;20198;-71
2021/10/15 08:20:39;;;;;;;0.60;0.60;;;8.10;99.90;;;;;;5033874;28;20186;-71
2021/10/15 08:23:05;;;;;;;0.70;0.70;;;8.20;99.90;;;;;;5033629;28;20202;-71
2021/10/15 08:25:31;;;;;;;0.40;0.40;;;8.40;99.90;;;;;;5033843;28;20695;-71
2021/10/15 08:27:58;;;;;;;0.60;0.60;;;8.50;99.90;;;;;;5034963;28;20198;-71
2021/10/15 08:30:25;;;;;;;0.55;0.55;;;8.70;99.90;;;;;;5033468;28;20692;-72
2021/10/15 08:32:52;;;;;;;0.60;0.60;;;8.70;99.90;;;;;;5032413;28;20252;-71
2021/10/15 08:35:18;;;;;;;0.65;0.65;;;8.60;99.90;;;;;;5034646;28;20202;-70
2021/10/15 08:37:44;;;;;;;0.60;0.60;;;8.70;99.90;;;;;;5033615;28;20688;-70
2021/10/15 08:40:10;;;;;;;0.60;0.60;;;8.80;99.90;;;;;;5034677;28;20210;-70
2021/10/15 08:42:36;;;;;;;1.40;1.30;;;8.90;99.90;;;;;;5034342;28;20206;-71
2021/10/15 08:45:03;;;;;;;0.68;0.68;;;8.80;99.90;;;;;;5032157;28;20695;-71
2021/10/15 08:47:29;;;;;;;0.60;0.60;;;8.70;99.90;;;;;;5033204;28;20695;-70
2021/10/15 08:49:55;;;;;;;0.68;0.68;;;8.70;99.90;;;;;;5033122;28;20198;-71
2021/10/15 08:52:20;;;;;;;0.55;0.55;;;8.70;99.90;;;;;;5034261;28;20597;-71
2021/10/15 08:54:46;;;;;;;0.68;0.68;;;8.80;99.90;;;;;;5034152;28;20317;-71
2021/10/15 08:57:13;;;;;;;0.60;0.60;;;9.10;99.90;;;;;;5033066;28;20252;-71
2021/10/15 08:59:47;;;;;;;0.50;0.50;;;9.30;99.90;;;;;;5033039;28;21918;-71
2021/10/15 09:02:21;;;;;;;0.60;0.60;;;9.40;99.90;;;;;;5033751;28;20212;-71
2021/10/15 09:04:56;;;;;;;0.50;0.50;;;9.50;99.90;;;;;;5017465;28;20209;-71
2021/10/15 09:07:25;;;;;;;0.50;0.50;;;9.70;99.90;;;;;;5032579;28;20288;-71
2021/10/15 09:10:10;;;;;;;0.60;0.60;;;9.70;99.90;;;;;;5015139;28;20712;-71
2021/10/15 09:12:46;;;;;;;0.70;0.70;;;9.70;99.90;;;;;;5032764;28;20194;-71
2021/10/15 09:15:13;;;;;;;0.70;0.70;;;9.80;99.90;;;;;;5033930;28;20235;-71
2021/10/15 09:17:51;;;;;;;0.60;0.60;;;10.00;99.90;;;;;;5033750;28;20206;-71
2021/10/15 09:20:31;;;;;;;0.50;0.50;;;10.30;99.90;;;;;;5033800;28;20202;-71
2021/10/15 09:22:57;;;;;;;0.75;0.75;;;10.40;99.90;;;;;;5031423;28;20209;-71
2021/10/15 09:25:34;;;;;;;0.50;0.50;;;10.30;99.90;;;;;;5032132;28;20218;-72
2021/10/15 09:28:00;;;;;;;0.50;0.50;;;10.50;99.90;;;;;;5032632;28;20198;-71
2021/10/15 09:30:30;;;;;;;0.70;0.70;;;10.50;99.90;;;;;;5032380;28;20210;-72
2021/10/15 09:32:59;;;;;;;0.50;0.50;;;10.40;99.90;;;;;;5015635;28;20301;-72
2021/10/15 09:35:32;;;;;;;0.47;0.47;;;10.50;99.90;;;;;;5029532;28;20264;-72
2021/10/15 09:38:03;;;;;;;0.50;0.50;;;10.60;99.90;;;;;;5018471;28;20229;-71
2021/10/15 09:40:44;;;;;;;0.60;0.60;;;10.80;99.90;;;;;;5032267;28;20654;-73
2021/10/15 09:43:12;;;;;;;0.60;0.60;;;11.00;99.90;;;;;;5032245;28;20210;-71
2021/10/15 09:45:50;;;;;;;0.60;0.60;;;10.90;99.90;;;;;;5033153;28;20210;-72
2021/10/15 09:48:20;;;;;;;0.60;0.60;;;10.90;99.90;;;;;;5033370;28;20244;-72
2021/10/15 09:50:47;;;;;;;0.93;0.93;;;11.00;99.90;;;;;;5013131;28;20199;-71
2021/10/15 09:53:13;;;;;;;0.60;0.60;;;10.80;99.90;;;;;;5015430;28;20293;-71
2021/10/15 09:55:41;;;;;;;0.68;0.68;;;10.90;99.90;;;;;;5033091;28;20712;-71
2021/10/15 09:58:17;;;;;;;0.60;0.60;;;10.80;99.90;;;;;;5031641;28;20985;-71
2021/10/15 10:00:44;;;;;;;0.50;0.50;;;10.90;99.90;;;;;;5017214;28;20198;-71
2021/10/15 10:03:10;;;;;;;0.60;0.60;;;11.10;99.90;;;;;;5023662;28;20237;-71
2021/10/15 10:05:37;;;;;;;0.70;0.70;;;11.00;99.90;;;;;;5011535;28;20222;-71
2021/10/15 10:08:04;;;;;;;0.70;0.70;;;11.10;99.90;;;;;;5012286;28;20577;-71
2021/10/15 10:10:32;;;;;;;0.60;0.60;;;11.00;99.90;;;;;;5011853;28;20700;-71
2021/10/15 10:12:59;;;;;;;0.60;0.60;;;10.90;99.90;;;;;;4993913;28;20203;-71
2021/10/15 10:15:28;;;;;;;0.68;0.68;;;10.90;99.90;;;;;;5011672;28;20202;-71
2021/10/15 10:18:25;;;;;;;0.50;0.50;;;10.80;99.90;;;;;;5011189;28;20199;-71
2021/10/15 10:21:02;;;;;;;0.50;0.50;;;10.80;99.90;;;;;;5008982;28;20290;-71
2021/10/15 10:23:39;;;;;;;0.70;0.70;;;10.50;99.90;;;;;;5010732;28;20673;-71
2021/10/15 10:26:14;;;;;;;0.60;0.60;;;10.60;99.90;;;;;;4993308;28;20210;-71
2021/10/15 10:28:40;;;;;;;0.60;0.60;;;10.70;99.90;;;;;;4993511;28;21340;-71
2021/10/15 10:31:18;;;;;;;0.60;0.60;;;10.90;99.90;;;;;;4994099;28;20239;-71
2021/10/15 10:33:59;;;;;;;0.68;0.68;;;11.00;99.90;;;;;;4994431;28;20245;-71
2021/10/15 10:36:27;;;;;;;0.50;0.50;;;10.90;99.90;;;;;;5011124;28;20646;-71
2021/10/15 10:38:53;;;;;;;0.40;0.40;;;10.80;99.90;;;;;;5012112;28;20207;-70
2021/10/15 10:41:28;;;;;;;0.60;0.60;;;10.80;99.90;;;;;;5012355;28;20238;-69
2021/10/15 10:43:54;;;;;;;0.60;0.60;;;10.90;99.90;;;;;;4995948;28;20284;-71
2021/10/15 10:46:29;;;;;;;0.70;0.70;;;11.00;99.90;;;;;;5011615;28;20249;-69
2021/10/15 10:48:54;;;;;;;0.70;0.70;;;11.10;99.90;;;;;;5012742;28;20198;-69
2021/10/15 10:51:21;;;;;;;18.45;2.55;;;11.00;99.90;;;;;;5011022;28;20222;-69
2021/10/15 10:54:03;;;;;;;0.65;0.65;;;11.00;99.90;;;;;;4994594;28;20245;-69
2021/10/15 10:56:40;;;;;;;0.60;0.60;;;11.10;99.90;;;;;;5011028;28;20206;-69
2021/10/15 10:59:17;;;;;;;0.60;0.60;;;11.40;99.90;;;;;;5010944;28;20203;-70
2021/10/15 11:01:50;;;;;;;0.60;0.60;;;11.30;99.90;;;;;;4994434;28;20217;-69
2021/10/15 11:04:25;;;;;;;0.50;0.50;;;11.30;99.90;;;;;;5025445;28;20360;-69
2021/10/15 11:06:59;;;;;;;0.57;0.57;;;11.20;99.90;;;;;;5013604;28;20307;-69
2021/10/15 11:09:47;;;;;;;0.60;0.60;;;11.40;99.90;;;;;;5032184;28;20255;-69
2021/10/15 11:12:33;;;;;;;0.60;0.60;;;11.30;99.90;;;;;;5027660;28;20226;-69
2021/10/15 11:15:05;;;;;;;0.60;0.60;;;11.30;99.90;;;;;;5004344;28;20671;-69
2021/10/15 11:17:33;;;;;;;0.60;0.60;;;11.50;99.90;;;;;;5013573;28;20195;-69
2021/10/15 11:20:19;;;;;;;0.85;0.70;;;11.70;99.90;;;;;;5029833;28;20699;-70
2021/10/15 11:22:59;;;;;;;0.68;0.68;;;11.70;99.90;;;;;;5015026;28;20202;-70
2021/10/15 11:25:50;;;;;;;0.60;0.60;;;11.70;99.90;;;;;;5014488;28;20285;-69
2021/10/15 11:28:20;;;;;;;0.60;0.60;;;11.70;99.90;;;;;;5020900;28;20696;-69
2021/10/15 11:30:52;;;;;;;0.60;0.60;;;11.40;99.90;;;;;;5030339;28;20264;-69
2021/10/15 11:33:21;;;;;;;0.55;0.55;;;11.20;99.60;;;;;;5013516;28;20257;-69
2021/10/15 11:35:50;;;;;;;0.60;0.60;;;11.10;99.90;;;;;;5012911;28;20225;-70
2021/10/15 11:38:20;;;;;;;0.60;0.60;;;11.20;99.90;;;;;;5012645;28;20707;-69
2021/10/15 11:40:50;;;;;;;1.10;0.98;;;11.40;99.90;;;;;;5030180;28;20297;-69
2021/10/15 11:43:26;;;;;;;0.60;0.60;;;11.50;99.30;;;;;;5029570;28;20669;-68
2021/10/15 11:45:57;;;;;;;0.52;0.52;;;11.80;99.10;;;;;;5031196;28;20258;-70
2021/10/15 11:48:41;;;;;;;0.68;0.68;;;11.90;97.50;;;;;;5028891;28;20818;-69
2021/10/15 11:51:23;;;;;;;0.60;0.60;;;11.70;98.20;;;;;;5016936;28;20194;-70
2021/10/15 11:53:55;;;;;;;0.50;0.50;;;11.60;98.80;;;;;;5024994;28;20278;-70
2021/10/15 11:56:24;;;;;;;0.50;0.50;;;11.70;98.00;;;;;;5019718;28;20206;-70
2021/10/15 11:58:51;;;;;;;0.52;0.52;;;11.90;98.00;;;;;;5030180;28;20541;-68
2021/10/15 12:01:22;;;;;;;0.50;0.50;;;12.10;96.80;;;;;;5011908;28;20585;-70
2021/10/15 12:03:50;;;;;;;0.55;0.55;;;12.10;97.20;;;;;;5018580;28;20231;-69
2021/10/15 12:06:18;;;;;;;0.52;0.52;;;11.90;96.60;;;;;;5010130;28;20191;-70
2021/10/15 12:08:45;;;;;;;0.60;0.60;;;11.80;96.60;;;;;;5010113;28;20203;-71
2021/10/15 12:11:17;;;;;;;0.60;0.60;;;11.70;95.20;;;;;;5009004;28;20199;-69
2021/10/15 12:13:44;;;;;;;0.50;0.50;;;11.60;97.70;;;;;;4993727;28;20203;-70
2021/10/15 12:16:37;;;;;;;0.60;0.60;;;11.20;97.30;;;;;;4993088;28;20223;-71
2021/10/15 12:19:07;;;;;;;0.60;0.60;;;11.30;96.50;;;;;;4989588;28;20297;-71
2021/10/15 12:21:38;;;;;;;0.63;0.63;;;11.40;96.30;;;;;;5009107;28;20203;-70
2021/10/15 12:24:05;;;;;;;0.75;0.75;;;11.50;95.40;;;;;;5011204;28;20587;-70
2021/10/15 12:26:31;;;;;;;0.70;0.70;;;11.50;94.30;;;;;;5009843;28;20231;-69
2021/10/15 12:28:57;;;;;;;0.50;0.50;;;11.50;93.60;;;;;;5010117;28;20198;-71
2021/10/15 12:31:36;;;;;;;0.68;0.68;;;11.40;95.10;;;;;;5011288;28;20206;-71
2021/10/15 12:34:06;;;;;;;0.70;0.70;;;11.60;94.70;;;;;;5009398;28;20743;-71
2021/10/15 12:36:34;;;;;;;0.43;0.43;;;11.60;92.60;;;;;;5010781;28;20195;-69
2021/10/15 12:39:25;;;;;;;0.90;0.90;;;11.50;92.00;;;;;;5006088;28;20693;-70
2021/10/15 12:41:54;;;;;;;0.60;0.60;;;11.60;92.30;;;;;;4994073;28;20270;-70
2021/10/15 12:44:27;;;;;;;0.50;0.50;;;11.50;92.90;;;;;;5010127;28;20537;-69
2021/10/15 12:47:01;;;;;;;0.50;0.50;;;11.40;92.30;;;;;;5012249;28;20281;-69
2021/10/15 12:49:28;;;;;;;0.60;0.60;;;11.20;92.80;;;;;;5013457;28;20201;-71
2021/10/15 12:51:54;;;;;;;0.70;0.70;;;11.20;94.30;;;;;;4997346;28;20230;-70
2021/10/15 12:54:39;;;;;;;0.52;0.52;;;11.20;94.30;;;;;;4998437;28;20593;-69
2021/10/15 12:57:10;;;;;;;0.60;0.60;;;11.00;93.80;;;;;;5013916;28;20203;-70
2021/10/15 12:59:36;;;;;;;0.60;0.60;;;10.90;95.50;;;;;;4996829;28;20218;-69
2021/10/15 13:02:06;;;;;;;0.50;0.50;;;10.80;95.60;;;;;;5014413;28;20293;-70
2021/10/15 13:04:33;;;;;;;0.63;0.63;;;10.70;95.00;;;;;;5013308;28;20701;-71
2021/10/15 13:07:00;;;;;;;0.70;0.60;;;10.60;95.40;;;;;;5034016;28;20691;-70
2021/10/15 13:09:25;;;;;;;0.50;0.50;;;10.50;94.30;;;;;;5033287;28;20612;-69